createdAt,value
2019-05-06T00:00:56.542Z,6.50
2019-05-06T00:03:24.809Z,6.27
2019-05-06T00:05:55.201Z,6.57
2019-05-06T00:08:25.559Z,6.40
2019-05-06T00:10:56.004Z,6.23
2019-05-06T00:13:26.349Z,6.07
2019-05-06T00:15:56.746Z,6.73
2019-05-06T00:18:27.062Z,6.40
2019-05-06T00:20:57.672Z,6.73
2019-05-06T00:23:38.288Z,6.63
2019-05-06T00:26:29.674Z,6.07
2019-05-06T00:29:04.477Z,6.57
2019-05-06T00:31:34.978Z,6.30
2019-05-06T00:34:05.289Z,6.10
2019-05-06T00:36:35.711Z,5.90
2019-05-06T00:39:29.626Z,6.07
2019-05-06T00:42:05.394Z,6.17
2019-05-06T00:44:35.697Z,6.07
2019-05-06T00:47:06.140Z,6.47
2019-05-06T00:49:36.539Z,5.60
2019-05-06T00:52:07.167Z,6.17
2019-05-06T00:54:37.625Z,6.03
2019-05-06T00:57:08.010Z,5.90
2019-05-06T00:59:38.500Z,6.10
2019-05-06T01:02:08.933Z,6.13
2019-05-06T01:04:39.332Z,5.40
2019-05-06T01:07:09.756Z,5.77
2019-05-06T01:09:40.203Z,6.13
2019-05-06T01:12:11.005Z,6.40
2019-05-06T01:14:45.622Z,6.57
2019-05-06T01:17:16.145Z,6.23
2019-05-06T01:19:46.976Z,6.70
2019-05-06T01:22:17.348Z,7.37
2019-05-06T01:24:47.648Z,6.33
2019-05-06T01:27:18.006Z,6.30
2019-05-06T01:29:48.301Z,6.57
2019-05-06T01:32:18.650Z,7.20
2019-05-06T01:34:49.090Z,6.17
2019-05-06T01:37:19.517Z,6.60
2019-05-06T01:40:08.870Z,6.73
2019-05-06T01:42:44.682Z,6.27
2019-05-06T01:45:15.741Z,6.63
2019-05-06T01:47:46.237Z,6.83
2019-05-06T01:50:16.767Z,7.00
2019-05-06T01:52:47.090Z,6.77
2019-05-06T01:55:17.450Z,7.20
2019-05-06T01:57:47.777Z,7.10
2019-05-06T02:00:18.551Z,6.80
2019-05-06T02:02:48.857Z,7.20
2019-05-06T02:05:19.302Z,7.83
2019-05-06T02:07:49.654Z,7.20
2019-05-06T02:10:19.961Z,7.50
2019-05-06T02:12:50.345Z,8.40
2019-05-06T02:15:20.644Z,7.80
2019-05-06T02:17:50.937Z,7.63
2019-05-06T02:20:21.342Z,7.90
2019-05-06T02:23:19.852Z,7.47
2019-05-06T02:25:53.992Z,7.70
2019-05-06T02:28:24.341Z,7.63
2019-05-06T02:31:14.779Z,7.60
2019-05-06T02:34:06.740Z,7.10
2019-05-06T02:36:47.746Z,7.93
2019-05-06T02:39:18.107Z,7.50
2019-05-06T02:41:48.462Z,7.40
2019-05-06T02:44:18.782Z,6.80
2019-05-06T02:46:53.490Z,8.03
2019-05-06T02:49:32.990Z,6.93
2019-05-06T02:52:03.405Z,7.10
2019-05-06T02:54:34.709Z,6.90
2019-05-06T02:57:05.259Z,7.80
2019-05-06T02:59:35.860Z,7.63
2019-05-06T03:02:06.222Z,7.37
2019-05-06T03:04:36.510Z,7.37
2019-05-06T03:07:06.902Z,7.93
2019-05-06T03:09:39.097Z,6.77
2019-05-06T03:12:09.403Z,6.77
2019-05-06T03:14:43.472Z,7.57
2019-05-06T03:17:13.982Z,7.23
2019-05-06T03:19:46.184Z,8.27
2019-05-06T03:22:29.367Z,6.70
2019-05-06T03:25:13.065Z,7.17
2019-05-06T03:27:43.871Z,7.70
2019-05-06T03:30:16.518Z,7.60
2019-05-06T03:33:21.096Z,7.77
2019-05-06T03:35:33.219Z,6.63
2019-05-06T03:37:53.313Z,7.80
2019-05-06T03:40:23.174Z,7.80
2019-05-06T03:42:53.873Z,7.07
2019-05-06T03:45:35.056Z,7.50
2019-05-06T03:48:13.435Z,6.67
2019-05-06T03:50:44.221Z,7.37
2019-05-06T03:53:14.674Z,7.83
2019-05-06T03:55:47.085Z,7.20
2019-05-06T03:58:19.379Z,6.97
2019-05-06T04:00:53.138Z,6.53
2019-05-06T04:03:41.981Z,7.37
2019-05-06T04:05:56.509Z,6.30
2019-05-06T04:08:26.863Z,6.60
2019-05-06T04:10:57.777Z,6.80
2019-05-06T04:13:28.647Z,6.57
2019-05-06T04:16:34.023Z,6.23
2019-05-06T04:19:13.071Z,7.00
2019-05-06T04:21:53.468Z,6.80
2019-05-06T04:24:48.967Z,6.80
2019-05-06T04:27:38.987Z,6.37
2019-05-06T04:30:09.414Z,6.43
2019-05-06T04:32:43.446Z,6.23
2019-05-06T04:35:17.334Z,6.63
2019-05-06T04:37:48.554Z,6.13
2019-05-06T04:40:19.246Z,5.67
2019-05-06T04:42:52.504Z,6.77
2019-05-06T04:45:23.560Z,6.17
2019-05-06T04:47:54.053Z,6.47
2019-05-06T04:50:24.588Z,6.23
2019-05-06T04:53:05.385Z,5.90
2019-05-06T04:55:37.058Z,6.57
2019-05-06T04:58:07.622Z,6.47
2019-05-06T05:00:38.960Z,6.17
2019-05-06T05:03:09.293Z,6.43
2019-05-06T05:05:39.662Z,6.50
2019-05-06T05:08:09.962Z,5.83
2019-05-06T05:10:52.841Z,6.57
2019-05-06T05:13:33.004Z,6.43
2019-05-06T05:16:33.183Z,6.00
2019-05-06T05:19:06.394Z,5.93
2019-05-06T05:21:37.945Z,6.43
2019-05-06T05:24:08.304Z,6.40
2019-05-06T05:26:39.776Z,6.33
2019-05-06T05:29:12.219Z,6.60
2019-05-06T05:31:43.678Z,6.53
2019-05-06T05:34:14.472Z,6.13
2019-05-06T05:36:44.827Z,6.87
2019-05-06T05:39:15.536Z,6.27
2019-05-06T05:41:45.857Z,6.37
2019-05-06T05:44:20.064Z,7.43
2019-05-06T05:46:52.348Z,7.10
2019-05-06T05:49:36.097Z,7.03
2019-05-06T05:52:06.417Z,6.87
2019-05-06T05:54:36.766Z,7.37
2019-05-06T05:57:06.744Z,6.73
2019-05-06T05:59:37.193Z,6.80
2019-05-06T06:02:07.499Z,6.70
2019-05-06T06:04:53.374Z,6.97
2019-05-06T06:07:12.165Z,7.10
2019-05-06T06:09:52.502Z,6.90
2019-05-06T06:12:23.234Z,6.80
2019-05-06T06:15:16.067Z,6.63
2019-05-06T06:18:05.913Z,6.50
2019-05-06T06:21:17.782Z,7.10
2019-05-06T06:23:42.736Z,7.40
2019-05-06T06:26:13.089Z,7.00
2019-05-06T06:28:43.429Z,7.30
2019-05-06T06:31:35.812Z,8.13
2019-05-06T06:34:13.012Z,7.33
2019-05-06T06:36:52.493Z,6.90
2019-05-06T06:39:25.885Z,6.53
2019-05-06T06:41:56.310Z,6.90
2019-05-06T06:44:30.093Z,7.20
2019-05-06T06:47:02.173Z,7.17
2019-05-06T06:49:32.866Z,6.77
2019-05-06T06:52:05.654Z,7.17
2019-05-06T06:54:35.322Z,6.80
2019-05-06T06:57:21.794Z,6.20
2019-05-06T06:59:56.756Z,5.60
2019-05-06T07:02:33.645Z,6.17
2019-05-06T07:05:23.923Z,6.00
2019-05-06T07:07:47.128Z,5.70
2019-05-06T07:10:34.295Z,6.10
2019-05-06T07:13:05.026Z,5.70
2019-05-06T07:15:35.498Z,5.97
2019-05-06T07:18:06.095Z,5.97
2019-05-06T07:20:43.112Z,5.27
2019-05-06T07:23:26.731Z,4.97
2019-05-06T07:25:57.173Z,5.10
2019-05-06T07:28:27.568Z,3.73
2019-05-06T07:31:13.137Z,5.63
2019-05-06T07:33:29.685Z,4.43
2019-05-06T07:36:02.033Z,4.90
2019-05-06T07:38:32.823Z,4.10
2019-05-06T07:41:09.394Z,4.00
2019-05-06T07:43:58.536Z,4.10
2019-05-06T07:46:47.928Z,4.10
2019-05-06T07:49:18.390Z,4.60
2019-05-06T07:51:48.770Z,4.30
2019-05-06T07:54:19.174Z,3.70
2019-05-06T07:56:49.578Z,4.43
2019-05-06T07:59:22.293Z,3.60
2019-05-06T08:01:53.877Z,4.30
2019-05-06T08:04:23.921Z,4.07
2019-05-06T08:06:54.249Z,4.10
2019-05-06T08:09:24.577Z,4.23
2019-05-06T08:11:54.989Z,3.97
2019-05-06T08:14:27.589Z,4.93
2019-05-06T08:17:02.796Z,3.87
2019-05-06T08:19:33.697Z,4.00
2019-05-06T08:22:08.725Z,3.97
2019-05-06T08:24:41.833Z,3.77
2019-05-06T08:27:12.375Z,3.93
2019-05-06T08:29:43.359Z,3.80
2019-05-06T08:32:14.401Z,4.30
2019-05-06T08:34:45.371Z,3.80
2019-05-06T08:37:33.447Z,3.93
2019-05-06T08:40:06.658Z,4.40
2019-05-06T08:42:38.045Z,4.47
2019-05-06T08:45:08.689Z,4.47
2019-05-06T08:47:39.433Z,4.00
2019-05-06T08:50:21.835Z,4.10
2019-05-06T08:53:13.851Z,4.57
2019-05-06T08:55:45.390Z,4.50
2019-05-06T08:58:15.708Z,5.07
2019-05-06T09:00:55.539Z,4.20
2019-05-06T09:03:25.279Z,4.47
2019-05-06T09:05:55.630Z,3.87
2019-05-06T09:08:26.340Z,3.90
2019-05-06T09:10:56.755Z,3.83
2019-05-06T09:13:27.088Z,4.30
2019-05-06T09:15:57.533Z,4.27
2019-05-06T09:18:27.955Z,3.97
2019-05-06T09:20:58.253Z,4.17
2019-05-06T09:23:28.591Z,4.23
2019-05-06T09:25:59.268Z,3.70
2019-05-06T09:28:36.027Z,3.87
2019-05-06T09:31:14.183Z,3.77
2019-05-06T09:33:50.386Z,3.90
2019-05-06T09:36:22.892Z,3.90
2019-05-06T09:38:53.100Z,3.97
2019-05-06T09:41:23.449Z,4.33
2019-05-06T09:43:53.790Z,3.27
2019-05-06T09:46:24.316Z,3.67
2019-05-06T09:49:05.760Z,4.07
2019-05-06T09:51:36.077Z,3.50
2019-05-06T09:54:23.581Z,3.20
2019-05-06T09:56:58.645Z,3.67
2019-05-06T09:59:29.053Z,3.20
2019-05-06T10:01:59.621Z,3.60
2019-05-06T10:04:29.914Z,3.30
2019-05-06T10:07:02.510Z,3.33
2019-05-06T10:09:32.630Z,3.10
2019-05-06T10:12:05.154Z,3.10
2019-05-06T10:14:35.143Z,3.20
2019-05-06T10:17:05.627Z,3.70
2019-05-06T10:19:36.618Z,3.43
2019-05-06T10:22:06.500Z,3.77
2019-05-06T10:24:36.797Z,3.50
2019-05-06T10:27:06.785Z,3.37
2019-05-06T10:29:48.876Z,3.43
2019-05-06T10:32:34.159Z,3.10
2019-05-06T10:35:05.224Z,3.50
2019-05-06T10:37:45.042Z,3.40
2019-05-06T10:40:22.451Z,3.53
2019-05-06T10:43:02.723Z,3.80
2019-05-06T10:45:33.202Z,3.73
2019-05-06T10:48:03.528Z,3.87
2019-05-06T10:50:38.425Z,3.87
2019-05-06T10:53:23.345Z,3.87
2019-05-06T10:55:55.517Z,3.93
2019-05-06T10:58:26.089Z,3.23
2019-05-06T11:01:24.865Z,3.60
2019-05-06T11:03:55.334Z,3.50
2019-05-06T11:06:25.737Z,3.77
2019-05-06T11:08:56.093Z,3.17
2019-05-06T11:11:36.933Z,3.00
2019-05-06T11:13:58.694Z,3.10
2019-05-06T11:16:33.255Z,3.20
2019-05-06T11:19:05.179Z,3.23
2019-05-06T11:21:36.495Z,3.03
2019-05-06T11:24:12.311Z,3.33
2019-05-06T11:26:45.730Z,3.10
2019-05-06T11:29:22.276Z,3.17
2019-05-06T11:32:07.543Z,3.40
2019-05-06T11:34:55.903Z,2.90
2019-05-06T11:37:46.325Z,2.93
2019-05-06T11:40:06.658Z,3.10
2019-05-06T11:42:37.616Z,3.47
2019-05-06T11:45:08.154Z,3.60
2019-05-06T11:47:38.563Z,3.30
2019-05-06T11:50:12.758Z,3.47
2019-05-06T11:52:43.447Z,3.50
2019-05-06T11:55:27.923Z,3.40
2019-05-06T11:57:47.268Z,8.70
2019-05-06T12:00:23.776Z,3.00
2019-05-06T12:02:53.392Z,3.00
2019-05-06T12:05:24.309Z,25.83
2019-05-06T12:08:04.506Z,37.07
2019-05-06T12:10:27.001Z,3.50
2019-05-06T12:12:57.359Z,2.60
2019-05-06T12:15:27.720Z,2.23
2019-05-06T12:17:59.203Z,2.50
2019-05-06T12:20:29.758Z,2.60
2019-05-06T12:23:03.891Z,2.30
2019-05-06T12:25:32.177Z,2.83
2019-05-06T12:28:03.743Z,2.63
2019-05-06T12:30:34.153Z,2.20
2019-05-06T12:33:33.094Z,2.40
2019-05-06T12:36:12.843Z,2.20
2019-05-06T12:39:06.338Z,2.37
2019-05-06T12:41:36.154Z,4.10
2019-05-06T12:44:06.203Z,2.60
2019-05-06T12:46:39.434Z,2.43
2019-05-06T12:49:09.709Z,2.40
2019-05-06T12:51:40.194Z,2.57
2019-05-06T12:54:12.739Z,2.70
2019-05-06T12:56:42.676Z,2.77
2019-05-06T12:59:13.097Z,2.70
2019-05-06T13:01:45.406Z,2.73
2019-05-06T13:04:15.454Z,3.00
2019-05-06T13:06:46.360Z,2.80
2019-05-06T13:09:16.871Z,3.60
2019-05-06T13:11:47.149Z,3.00
2019-05-06T13:14:17.550Z,2.50
2019-05-06T13:16:47.969Z,2.73
2019-05-06T13:19:18.829Z,3.10
2019-05-06T13:21:49.894Z,3.20
2019-05-06T13:24:22.430Z,2.93
2019-05-06T13:26:52.906Z,3.10
2019-05-06T13:29:27.577Z,3.30
2019-05-06T13:31:57.995Z,3.40
2019-05-06T13:34:28.875Z,3.40
2019-05-06T13:36:59.504Z,3.07
2019-05-06T13:39:32.886Z,3.33
2019-05-06T13:42:02.494Z,2.90
2019-05-06T13:44:32.974Z,3.53
2019-05-06T13:47:03.981Z,3.10
2019-05-06T13:49:54.844Z,2.67
2019-05-06T13:52:26.661Z,2.83
2019-05-06T13:54:57.043Z,2.87
2019-05-06T13:57:29.081Z,2.77
2019-05-06T13:59:59.427Z,2.70
2019-05-06T14:02:53.199Z,2.73
2019-05-06T14:05:24.161Z,2.83
2019-05-06T14:07:54.457Z,2.90
2019-05-06T14:10:25.035Z,3.07
2019-05-06T14:12:55.386Z,2.50
2019-05-06T14:15:25.778Z,3.30
2019-05-06T14:17:56.133Z,2.70
2019-05-06T14:20:26.438Z,2.87
2019-05-06T14:22:56.761Z,3.00
2019-05-06T14:25:44.729Z,3.00
2019-05-06T14:28:43.206Z,3.30
2019-05-06T14:31:32.803Z,3.10
2019-05-06T14:34:03.412Z,3.30
2019-05-06T14:36:33.782Z,2.80
2019-05-06T14:39:07.189Z,2.80
2019-05-06T14:41:39.199Z,3.00
2019-05-06T14:44:10.241Z,3.33
2019-05-06T14:47:02.644Z,3.03
2019-05-06T14:49:32.983Z,3.27
2019-05-06T14:52:03.531Z,3.00
2019-05-06T14:54:38.461Z,3.00
2019-05-06T14:57:13.065Z,2.83
2019-05-06T14:59:43.475Z,3.20
2019-05-06T15:02:13.882Z,3.37
2019-05-06T15:04:44.176Z,3.10
2019-05-06T15:07:14.521Z,3.07
2019-05-06T15:09:58.013Z,3.17
2019-05-06T15:12:16.844Z,3.00
2019-05-06T15:14:47.178Z,3.40
2019-05-06T15:17:17.472Z,4.37
2019-05-06T15:19:47.749Z,4.10
2019-05-06T15:22:18.102Z,4.60
2019-05-06T15:24:48.614Z,4.77
2019-05-06T15:27:18.901Z,5.20
2019-05-06T15:29:53.173Z,5.50
2019-05-06T15:32:27.927Z,5.30
2019-05-06T15:35:12.969Z,5.50
2019-05-06T15:37:49.869Z,5.30
2019-05-06T15:40:32.071Z,5.60
2019-05-06T15:42:54.673Z,5.87
2019-05-06T15:45:25.049Z,6.07
2019-05-06T15:47:55.453Z,6.27
2019-05-06T15:50:25.828Z,6.07
2019-05-06T15:52:56.185Z,6.23
2019-05-06T15:55:26.493Z,6.20
2019-05-06T15:57:56.797Z,6.93
2019-05-06T16:00:27.190Z,6.67
2019-05-06T16:02:57.593Z,6.60
2019-05-06T16:05:27.899Z,6.23
2019-05-06T16:07:58.429Z,6.00
2019-05-06T16:10:28.749Z,6.87
2019-05-06T16:12:59.208Z,7.00
2019-05-06T16:15:33.313Z,6.70
2019-05-06T16:18:04.401Z,6.17
2019-05-06T16:20:35.902Z,6.30
2019-05-06T16:23:16.086Z,6.10
2019-05-06T16:25:47.195Z,6.37
2019-05-06T16:28:18.649Z,6.77
2019-05-06T16:30:50.259Z,6.47
2019-05-06T16:33:23.669Z,6.40
2019-05-06T16:35:54.827Z,6.63
2019-05-06T16:38:32.130Z,6.83
2019-05-06T16:41:12.348Z,6.33
2019-05-06T16:43:37.147Z,6.40
2019-05-06T16:46:07.768Z,6.67
2019-05-06T16:48:39.126Z,6.33
2019-05-06T16:51:12.455Z,6.13
2019-05-06T16:53:45.863Z,6.63
2019-05-06T16:56:23.302Z,6.73
2019-05-06T16:58:56.895Z,6.60
2019-05-06T17:01:28.277Z,6.57
2019-05-06T17:04:15.221Z,6.60
2019-05-06T17:06:46.426Z,6.50
2019-05-06T17:09:23.685Z,7.23
2019-05-06T17:11:51.249Z,6.27
2019-05-06T17:14:22.200Z,6.23
2019-05-06T17:16:57.690Z,6.73
2019-05-06T17:19:28.221Z,7.17
2019-05-06T17:21:58.612Z,7.00
2019-05-06T17:24:29.845Z,6.47
2019-05-06T17:27:02.615Z,6.90
2019-05-06T17:30:07.884Z,6.90
2019-05-06T17:32:42.279Z,7.03
2019-05-06T17:35:12.966Z,7.37
2019-05-06T17:37:53.645Z,7.97
2019-05-06T17:40:24.150Z,7.43
2019-05-06T17:42:54.559Z,8.00
2019-05-06T17:45:58.270Z,7.70
2019-05-06T17:48:27.563Z,7.07
2019-05-06T17:51:10.167Z,7.50
2019-05-06T17:53:42.616Z,7.47
2019-05-06T17:56:13.133Z,7.30
2019-05-06T17:58:43.437Z,7.10
2019-05-06T18:01:15.548Z,7.40
2019-05-06T18:03:45.856Z,7.30
2019-05-06T18:06:16.242Z,8.10
2019-05-06T18:08:46.664Z,6.83
2019-05-06T18:11:16.981Z,7.30
2019-05-06T18:13:47.290Z,6.70
2019-05-06T18:16:17.601Z,7.07
2019-05-06T18:18:48.071Z,6.70
2019-05-06T18:21:18.478Z,7.87
2019-05-06T18:23:49.652Z,6.73
2019-05-06T18:26:22.763Z,7.13
2019-05-06T18:28:52.816Z,6.73
2019-05-06T18:31:23.317Z,6.27
2019-05-06T18:33:53.633Z,6.47
2019-05-06T18:36:24.299Z,6.53
2019-05-06T18:38:54.729Z,6.70
2019-05-06T18:41:25.155Z,6.97
2019-05-06T18:43:55.686Z,6.10
2019-05-06T18:46:27.344Z,5.77
2019-05-06T18:48:57.549Z,6.93
2019-05-06T18:51:27.867Z,6.37
2019-05-06T18:53:59.600Z,6.50
2019-05-06T18:56:32.314Z,6.20
2019-05-06T18:59:02.905Z,6.60
2019-05-06T19:01:33.392Z,5.53
2019-05-06T19:04:18.109Z,5.80
2019-05-06T19:06:48.420Z,6.27
2019-05-06T19:09:26.850Z,6.17
2019-05-06T19:11:57.519Z,5.77
2019-05-06T19:14:27.717Z,7.53
2019-05-06T19:16:59.043Z,6.60
2019-05-06T19:19:34.268Z,7.17
2019-05-06T19:22:03.589Z,6.80
2019-05-06T19:24:34.246Z,6.77
2019-05-06T19:27:07.405Z,6.77
2019-05-06T19:29:38.765Z,7.20
2019-05-06T19:32:09.228Z,7.63
2019-05-06T19:34:42.283Z,8.57
2019-05-06T19:37:13.220Z,8.23
2019-05-06T19:39:45.015Z,7.87
2019-05-06T19:42:15.304Z,8.83
2019-05-06T19:44:45.647Z,9.17
2019-05-06T19:47:15.993Z,8.80
2019-05-06T19:49:46.352Z,10.27
2019-05-06T19:52:16.724Z,10.40
2019-05-06T19:54:47.678Z,10.60
2019-05-06T19:57:18.488Z,10.47
2019-05-06T19:59:52.000Z,10.03
2019-05-06T20:02:25.214Z,10.43
2019-05-06T20:04:57.977Z,10.13
2019-05-06T20:07:43.841Z,9.80
2019-05-06T20:10:33.431Z,9.73
2019-05-06T20:13:05.440Z,10.10
2019-05-06T20:15:37.289Z,10.30
2019-05-06T20:18:09.253Z,10.70
2019-05-06T20:20:42.350Z,10.30
2019-05-06T20:23:12.791Z,9.90
2019-05-06T20:25:44.876Z,10.10
2019-05-06T20:28:15.147Z,11.53
2019-05-06T20:30:45.612Z,10.80
2019-05-06T20:33:15.966Z,9.60
2019-05-06T20:35:46.285Z,9.87
2019-05-06T20:38:16.609Z,10.37
2019-05-06T20:40:46.961Z,10.60
2019-05-06T20:43:20.605Z,10.83
2019-05-06T20:45:49.472Z,10.93
2019-05-06T20:48:19.773Z,11.30
2019-05-06T20:50:52.218Z,11.33
2019-05-06T20:53:23.228Z,11.90
2019-05-06T20:55:53.759Z,11.77
2019-05-06T20:58:24.138Z,11.57
2019-05-06T21:00:54.539Z,11.03
2019-05-06T21:03:24.935Z,11.13
2019-05-06T21:05:55.274Z,11.33
2019-05-06T21:08:25.581Z,11.73
2019-05-06T21:10:55.937Z,11.93
2019-05-06T21:13:31.878Z,11.23
2019-05-06T21:15:58.305Z,11.23
2019-05-06T21:18:28.639Z,11.53
2019-05-06T21:20:58.981Z,11.47
2019-05-06T21:23:29.301Z,10.70
2019-05-06T21:25:59.685Z,11.13
2019-05-06T21:28:29.998Z,10.40
2019-05-06T21:31:00.316Z,10.73
2019-05-06T21:33:32.811Z,11.20
2019-05-06T21:36:03.043Z,11.63
2019-05-06T21:38:33.521Z,12.07
2019-05-06T21:41:03.869Z,11.80
2019-05-06T21:43:45.982Z,11.67
2019-05-06T21:46:06.089Z,11.20
2019-05-06T21:48:36.502Z,11.80
2019-05-06T21:51:07.059Z,11.77
2019-05-06T21:53:39.206Z,11.93
2019-05-06T21:56:09.514Z,11.30
2019-05-06T21:58:40.358Z,11.67
2019-05-06T22:01:10.869Z,11.53
2019-05-06T22:03:43.386Z,11.77
2019-05-06T22:06:13.407Z,11.67
2019-05-06T22:08:43.722Z,12.00
2019-05-06T22:11:14.032Z,11.83
2019-05-06T22:13:57.775Z,11.37
2019-05-06T22:16:16.329Z,12.17
2019-05-06T22:18:46.637Z,11.07
2019-05-06T22:21:22.525Z,10.97
2019-05-06T22:24:12.906Z,12.10
2019-05-06T22:26:43.212Z,11.00
2019-05-06T22:29:13.513Z,10.93
2019-05-06T22:31:44.032Z,10.90
2019-05-06T22:34:15.782Z,11.23
2019-05-06T22:36:46.284Z,11.33
2019-05-06T22:39:16.616Z,11.60
2019-05-06T22:41:46.885Z,10.57
2019-05-06T22:44:17.292Z,10.60
2019-05-06T22:46:47.616Z,11.23
2019-05-06T22:49:17.972Z,12.00
2019-05-06T22:51:48.282Z,10.47
2019-05-06T22:54:18.835Z,10.77
2019-05-06T22:56:49.258Z,11.20
2019-05-06T22:59:19.618Z,12.10
2019-05-06T23:02:07.745Z,11.70
2019-05-06T23:04:38.960Z,12.33
2019-05-06T23:07:09.264Z,11.53
2019-05-06T23:09:39.721Z,12.07
2019-05-06T23:12:12.345Z,12.20
2019-05-06T23:14:42.840Z,11.90
2019-05-06T23:17:13.252Z,12.53
2019-05-06T23:19:43.585Z,11.87
2019-05-06T23:22:13.960Z,12.07
2019-05-06T23:24:44.298Z,12.67
2019-05-06T23:27:14.652Z,12.20
2019-05-06T23:29:45.150Z,11.97
2019-05-06T23:32:15.618Z,12.47
2019-05-06T23:34:45.936Z,11.93
2019-05-06T23:37:19.816Z,13.07
2019-05-06T23:40:32.926Z,12.63
2019-05-06T23:43:39.012Z,13.67
2019-05-06T23:46:45.463Z,13.23
2019-05-06T23:49:52.713Z,14.23
2019-05-06T23:52:59.237Z,13.60
2019-05-06T23:56:05.657Z,13.53
2019-05-06T23:58:35.967Z,14.30
